Time;durP1;ratioP1;P1;durP2;ratioP2;P2;SDS_P1;SDS_P2;PMS_P1;PMS_P2;Temp;Humidity;BMP_temperature;BMP_pressure;BME280_temperature;BME280_humidity;BME280_pressure;Samples;Min_cycle;Max_cycle;Signal;HPM_P1;HPM_P2
2023/03/02 00:02:00;;;;;;;19.83;14.15;;;2.20;99.90;;;;;;5013438;28;20049;-78
2023/03/02 00:04:43;;;;;;;21.93;13.50;;;2.60;99.90;;;;;;5027418;28;20649;-78
2023/03/02 00:07:13;;;;;;;20.13;13.33;;;2.20;99.90;;;;;;5013032;28;20049;-78
2023/03/02 00:09:39;;;;;;;18.20;13.40;;;2.20;99.90;;;;;;5028133;28;20176;-78
2023/03/02 00:12:06;;;;;;;17.53;13.07;;;2.20;99.90;;;;;;5027642;28;20419;-76
2023/03/02 00:14:32;;;;;;;16.30;11.40;;;2.10;99.90;;;;;;5029156;28;20049;-77
2023/03/02 00:16:58;;;;;;;14.87;11.50;;;2.10;99.90;;;;;;5014367;28;20037;-77
2023/03/02 00:19:23;;;;;;;17.47;12.37;;;2.10;99.90;;;;;;5028578;28;20056;-77
2023/03/02 00:21:49;;;;;;;19.17;12.63;;;2.10;99.90;;;;;;5029673;28;20053;-77
2023/03/02 00:24:15;;;;;;;18.57;12.50;;;2.00;99.90;;;;;;5029431;28;20049;-78
2023/03/02 00:26:41;;;;;;;18.07;12.67;;;2.50;99.90;;;;;;5019906;28;20125;-77
2023/03/02 00:29:07;;;;;;;18.93;12.40;;;2.00;99.90;;;;;;5031317;28;20068;-77
2023/03/02 00:31:33;;;;;;;18.67;13.07;;;2.50;99.90;;;;;;5033310;28;20042;-77
2023/03/02 00:33:59;;;;;;;19.13;13.37;;;2.10;99.90;;;;;;5032501;28;20388;-77
2023/03/02 00:36:25;;;;;;;17.47;11.87;;;2.00;99.90;;;;;;5020494;28;20045;-77
2023/03/02 00:38:51;;;;;;;18.10;12.30;;;2.00;99.90;;;;;;5011714;28;20144;-77
2023/03/02 00:41:20;;;;;;;17.87;12.17;;;2.00;99.90;;;;;;5032689;28;20049;-78
2023/03/02 00:43:46;;;;;;;18.33;12.07;;;2.00;99.90;;;;;;5031674;28;20068;-77
2023/03/02 00:46:15;;;;;;;15.77;11.03;;;1.90;99.90;;;;;;5022412;28;20093;-78
2023/03/02 00:48:41;;;;;;;15.63;11.47;;;1.80;99.90;;;;;;5048160;28;20042;-78
2023/03/02 00:51:07;;;;;;;18.90;11.77;;;1.70;99.90;;;;;;5019767;28;20079;-79
2023/03/02 00:53:34;;;;;;;17.80;11.77;;;1.70;99.90;;;;;;5011297;28;20519;-78
2023/03/02 00:56:01;;;;;;;18.13;12.27;;;1.50;99.90;;;;;;5012007;28;20053;-77
2023/03/02 00:58:27;;;;;;;15.53;9.77;;;1.50;99.90;;;;;;4996888;28;20054;-77
2023/03/02 01:00:53;;;;;;;14.20;10.73;;;1.40;99.90;;;;;;5012399;28;20050;-78
2023/03/02 01:03:19;;;;;;;14.53;10.20;;;1.40;99.90;;;;;;5029008;28;20349;-77
2023/03/02 01:05:45;;;;;;;17.27;10.53;;;1.30;99.90;;;;;;5032422;28;20050;-77
2023/03/02 01:08:11;;;;;;;13.97;9.30;;;1.30;99.90;;;;;;5024446;28;20048;-78
2023/03/02 01:10:38;;;;;;;15.70;9.70;;;1.30;99.90;;;;;;5051957;28;20116;-78
2023/03/02 01:13:04;;;;;;;14.03;8.77;;;1.20;99.90;;;;;;5049764;28;20068;-77
2023/03/02 01:15:31;;;;;;;14.70;9.90;;;1.20;99.90;;;;;;5033780;28;20051;-78
2023/03/02 01:17:58;;;;;;;14.77;9.30;;;1.10;99.90;;;;;;5036101;28;20483;-77
2023/03/02 01:20:24;;;;;;;12.47;8.97;;;1.10;99.90;;;;;;5051878;28;20236;-78
2023/03/02 01:22:50;;;;;;;13.57;9.50;;;1.10;99.90;;;;;;5051176;28;20410;-78
2023/03/02 01:25:16;;;;;;;13.20;9.13;;;1.10;99.90;;;;;;5051658;28;20051;-78
2023/03/02 01:27:41;;;;;;;15.87;9.93;;;1.10;99.90;;;;;;5030117;28;20056;-78
2023/03/02 01:30:08;;;;;;;14.43;9.67;;;1.20;99.90;;;;;;5032195;28;20041;-78
2023/03/02 01:32:33;;;;;;;16.50;10.00;;;1.20;99.90;;;;;;5030236;28;20053;-78
2023/03/02 01:34:59;;;;;;;17.17;10.23;;;1.10;99.90;;;;;;5030097;28;20423;-78
2023/03/02 01:37:25;;;;;;;15.20;10.70;;;1.10;99.90;;;;;;5016224;28;20057;-78
2023/03/02 01:39:51;;;;;;;17.43;10.73;;;1.10;99.90;;;;;;5063969;28;20372;-77
2023/03/02 01:42:16;;;;;;;18.57;12.50;;;1.20;99.90;;;;;;5030263;28;20629;-78
2023/03/02 01:44:48;;;;;;;20.77;13.93;;;1.30;99.90;;;;;;5032552;28;20045;-78
2023/03/02 01:47:18;;;;;;;26.02;15.15;;;1.70;99.90;;;;;;5047729;28;20387;-77
2023/03/02 01:49:52;;;;;;;21.20;11.43;;;1.40;99.90;;;;;;5031443;28;20049;-77
2023/03/02 01:52:18;;;;;;;25.87;16.60;;;1.40;99.90;;;;;;5010952;28;20145;-78
2023/03/02 01:54:48;;;;;;;22.33;15.20;;;1.50;99.90;;;;;;5011865;28;20061;-78
2023/03/02 01:57:24;;;;;;;27.73;16.70;;;1.90;99.90;;;;;;4994822;28;20992;-77
2023/03/02 01:59:54;;;;;;;27.17;16.23;;;1.50;99.90;;;;;;5010513;28;20447;-77
2023/03/02 02:02:20;;;;;;;30.50;18.80;;;1.90;99.90;;;;;;5021288;28;20050;-78
2023/03/02 02:04:47;;;;;;;28.53;17.00;;;1.50;99.90;;;;;;5031039;28;20045;-78
2023/03/02 02:07:13;;;;;;;25.70;17.40;;;1.40;99.90;;;;;;5010052;28;20518;-77
2023/03/02 02:09:43;;;;;;;31.10;18.40;;;1.40;99.90;;;;;;5031053;28;20089;-78
2023/03/02 02:12:14;;;;;;;29.77;18.80;;;1.40;99.90;;;;;;5029443;28;20052;-78
2023/03/02 02:14:40;;;;;;;32.90;19.60;;;1.40;99.90;;;;;;5030647;28;20045;-78
2023/03/02 02:17:07;;;;;;;35.70;21.30;;;1.30;99.90;;;;;;5012683;28;20085;-77
2023/03/02 02:19:44;;;;;;;33.50;20.43;;;1.30;99.90;;;;;;5029818;28;20041;-77
2023/03/02 02:22:14;;;;;;;36.83;21.40;;;1.30;99.90;;;;;;5029936;28;20053;-78
2023/03/02 02:24:46;;;;;;;35.93;21.83;;;1.20;99.90;;;;;;5031233;28;20053;-77
2023/03/02 02:27:13;;;;;;;38.30;22.27;;;1.30;99.90;;;;;;5014468;28;20053;-78
2023/03/02 02:29:46;;;;;;;35.00;23.03;;;1.30;99.90;;;;;;5030691;28;20392;-77
2023/03/02 02:32:16;;;;;;;42.37;24.67;;;1.80;99.90;;;;;;5028840;28;20046;-78
2023/03/02 02:35:15;;;;;;;42.03;25.87;;;1.20;99.90;;;;;;5031033;28;20053;-77
2023/03/02 02:37:48;;;;;;;42.07;25.03;;;1.20;99.90;;;;;;5006779;28;20136;-77
2023/03/02 02:40:46;;;;;;;42.10;24.23;;;1.20;99.90;;;;;;5030769;28;20052;-77
2023/03/02 02:43:15;;;;;;;45.60;27.13;;;1.20;99.90;;;;;;5026262;28;20065;-78
2023/03/02 02:45:41;;;;;;;46.90;26.57;;;1.20;99.90;;;;;;5030338;28;20046;-78
2023/03/02 02:48:14;;;;;;;45.73;26.73;;;1.20;99.90;;;;;;5013723;28;20041;-77
2023/03/02 02:50:39;;;;;;;54.50;29.80;;;1.10;99.90;;;;;;5023353;28;20037;-77
2023/03/02 02:53:12;;;;;;;48.03;29.20;;;1.20;99.90;;;;;;5009991;28;20558;-78
2023/03/02 02:55:40;;;;;;;52.93;29.90;;;1.20;99.90;;;;;;5009897;28;20050;-78
2023/03/02 02:58:37;;;;;;;63.57;31.53;;;1.30;99.90;;;;;;5009183;28;20054;-78
2023/03/02 03:01:04;;;;;;;57.07;31.00;;;1.10;99.90;;;;;;5007434;28;20052;-78
2023/03/02 03:03:31;;;;;;;58.33;31.33;;;1.10;99.90;;;;;;5029493;28;20073;-78
2023/03/02 03:05:58;;;;;;;63.57;31.47;;;1.20;99.90;;;;;;5029533;28;20487;-78
2023/03/02 03:08:42;;;;;;;58.63;31.17;;;1.10;99.90;;;;;;5012499;28;20432;-78
2023/03/02 03:11:11;;;;;;;59.23;31.77;;;1.10;99.90;;;;;;5030327;28;20060;-78
2023/03/02 03:13:38;;;;;;;64.60;32.17;;;1.20;99.90;;;;;;5029116;28;20046;-78
2023/03/02 03:16:06;;;;;;;72.30;35.90;;;1.10;99.90;;;;;;5030009;28;20573;-78
2023/03/02 03:18:32;;;;;;;65.23;34.40;;;1.10;99.90;;;;;;5018238;28;20044;-78
2023/03/02 03:20:58;;;;;;;64.67;32.70;;;1.00;99.90;;;;;;5030231;28;20045;-78
2023/03/02 03:23:23;;;;;;;70.07;35.37;;;1.00;99.90;;;;;;5027928;28;20103;-78
2023/03/02 03:25:49;;;;;;;69.67;35.00;;;1.00;99.90;;;;;;5030130;28;20411;-77
2023/03/02 03:28:16;;;;;;;66.33;34.03;;;0.90;99.90;;;;;;5012594;28;20053;-78
2023/03/02 03:30:42;;;;;;;65.80;34.97;;;1.50;99.90;;;;;;5029031;28;20056;-78
2023/03/02 03:33:09;;;;;;;76.43;36.90;;;0.90;99.90;;;;;;5028925;28;20446;-78
2023/03/02 03:35:39;;;;;;;79.30;37.30;;;1.00;99.90;;;;;;5012251;28;20045;-77
2023/03/02 03:38:06;;;;;;;84.17;39.53;;;1.50;99.90;;;;;;5012884;28;20064;-77
2023/03/02 03:40:33;;;;;;;120.67;39.27;;;1.00;99.90;;;;;;5024925;28;20038;-78
2023/03/02 03:43:02;;;;;;;75.70;38.97;;;1.10;99.90;;;;;;5027874;28;20550;-78
2023/03/02 03:45:28;;;;;;;75.20;36.37;;;1.00;99.90;;;;;;5062485;28;20045;-78
2023/03/02 03:47:54;;;;;;;79.67;38.03;;;1.10;99.90;;;;;;5012985;28;20317;-78
2023/03/02 03:50:20;;;;;;;92.23;38.20;;;1.40;99.90;;;;;;5022641;28;20044;-77
2023/03/02 03:52:46;;;;;;;103.53;40.20;;;1.00;99.90;;;;;;5009077;28;20050;-78
2023/03/02 03:55:12;;;;;;;125.03;41.43;;;1.10;99.90;;;;;;5009442;28;20107;-78
2023/03/02 03:57:38;;;;;;;152.00;40.57;;;1.00;99.90;;;;;;4993570;28;20419;-78
2023/03/02 04:00:09;;;;;;;113.80;40.47;;;1.00;99.90;;;;;;5011774;28;20048;-77
2023/03/02 04:02:36;;;;;;;91.03;29.90;;;1.10;99.90;;;;;;5025776;28;20087;-77
2023/03/02 04:05:05;;;;;;;131.33;39.57;;;0.90;99.90;;;;;;5033469;28;20103;-78
2023/03/02 04:07:35;;;;;;;206.40;43.30;;;1.10;99.90;;;;;;5012151;28;20170;-78
2023/03/02 04:10:05;;;;;;;196.00;42.93;;;1.10;99.90;;;;;;5031641;28;20476;-77
2023/03/02 04:12:32;;;;;;;190.70;41.23;;;0.90;99.90;;;;;;5032401;28;20064;-78
2023/03/02 04:14:57;;;;;;;262.90;44.30;;;1.30;99.90;;;;;;5033431;28;20478;-78
2023/03/02 04:17:23;;;;;;;260.90;45.13;;;0.90;99.90;;;;;;5017012;28;20148;-77
2023/03/02 04:19:49;;;;;;;203.53;44.73;;;0.80;99.90;;;;;;5032440;28;20052;-77
2023/03/02 04:22:15;;;;;;;208.67;43.27;;;0.80;99.90;;;;;;5032668;28;20060;-79
2023/03/02 04:24:42;;;;;;;157.13;42.90;;;1.00;99.90;;;;;;5033262;28;20064;-77
2023/03/02 04:27:08;;;;;;;279.27;51.93;;;0.80;99.90;;;;;;5017305;28;20462;-78
2023/03/02 04:29:35;;;;;;;219.10;47.23;;;1.20;99.90;;;;;;5032392;28;20076;-78
2023/03/02 04:32:01;;;;;;;195.30;44.40;;;0.80;99.90;;;;;;5033353;28;20052;-78
2023/03/02 04:34:26;;;;;;;308.10;47.37;;;0.80;99.90;;;;;;5031746;28;20053;-78
2023/03/02 04:36:53;;;;;;;262.37;45.00;;;0.90;99.90;;;;;;5017676;28;20107;-77
2023/03/02 04:39:19;;;;;;;262.30;46.43;;;0.80;99.90;;;;;;5031351;28;20392;-78
2023/03/02 04:41:46;;;;;;;232.33;44.10;;;0.80;99.90;;;;;;5031746;28;20519;-78
2023/03/02 04:44:13;;;;;;;259.27;45.90;;;0.70;99.90;;;;;;5032159;28;20414;-78
2023/03/02 04:46:39;;;;;;;335.60;47.93;;;0.70;99.90;;;;;;5034504;28;20041;-77
2023/03/02 04:49:05;;;;;;;309.27;50.00;;;0.70;99.90;;;;;;5029385;28;20519;-78
2023/03/02 04:51:36;;;;;;;347.77;52.60;;;1.00;99.90;;;;;;5017253;28;20116;-78
2023/03/02 04:54:06;;;;;;;341.10;50.90;;;1.00;99.90;;;;;;5011038;28;20061;-77
2023/03/02 04:56:32;;;;;;;249.97;48.77;;;0.60;99.90;;;;;;4981484;28;20065;-78
2023/03/02 04:58:58;;;;;;;214.43;46.07;;;0.60;99.90;;;;;;5010112;28;20042;-77
2023/03/02 05:01:25;;;;;;;286.27;50.13;;;0.70;99.90;;;;;;5015830;28;20041;-77
2023/03/02 05:03:51;;;;;;;267.83;48.70;;;0.80;99.90;;;;;;5018122;28;20054;-78
2023/03/02 05:06:17;;;;;;;358.53;54.07;;;0.70;99.90;;;;;;5016428;28;20052;-78
2023/03/02 05:08:43;;;;;;;335.33;54.03;;;0.80;99.90;;;;;;5026325;28;20127;-78
2023/03/02 05:11:20;;;;;;;413.37;54.73;;;0.70;99.90;;;;;;5011982;28;20049;-78
2023/03/02 05:13:50;;;;;;;416.93;54.17;;;0.80;99.90;;;;;;5032101;28;20045;-78
2023/03/02 05:16:16;;;;;;;647.33;65.07;;;0.80;99.90;;;;;;5020874;28;20198;-78
2023/03/02 05:18:42;;;;;;;559.13;59.97;;;0.70;99.90;;;;;;5026378;28;20458;-78
2023/03/02 05:21:08;;;;;;;497.00;61.83;;;0.70;99.90;;;;;;5014097;28;20136;-77
2023/03/02 05:23:34;;;;;;;397.33;55.40;;;0.90;99.90;;;;;;5030942;28;20080;-78
2023/03/02 05:25:59;;;;;;;380.40;57.53;;;0.60;99.90;;;;;;5031554;28;20073;-77
2023/03/02 05:28:26;;;;;;;403.00;57.57;;;0.60;99.90;;;;;;5015670;28;20730;-78
2023/03/02 05:30:52;;;;;;;485.13;62.77;;;0.70;99.90;;;;;;5030572;28;20053;-78
2023/03/02 05:33:18;;;;;;;443.87;60.47;;;0.60;99.90;;;;;;5031118;28;20052;-78
2023/03/02 05:35:45;;;;;;;432.83;61.60;;;0.70;99.90;;;;;;5031095;28;20415;-78
2023/03/02 05:38:11;;;;;;;476.37;62.63;;;0.60;99.90;;;;;;5016644;28;20239;-78
2023/03/02 05:40:37;;;;;;;516.73;69.73;;;0.70;99.90;;;;;;5031438;28;20492;-77
2023/03/02 05:43:03;;;;;;;535.93;71.30;;;0.60;99.90;;;;;;5029670;28;20056;-78
2023/03/02 05:45:36;;;;;;;540.33;75.00;;;0.60;99.90;;;;;;5047315;28;20056;-78
2023/03/02 05:48:02;;;;;;;433.50;77.63;;;0.70;99.90;;;;;;5013881;28;20602;-78
2023/03/02 05:50:28;;;;;;;521.17;82.87;;;0.70;99.90;;;;;;5025749;28;20046;-78
2023/03/02 05:52:53;;;;;;;457.03;84.67;;;0.70;99.90;;;;;;5010816;28;20408;-78
2023/03/02 05:55:19;;;;;;;473.00;85.67;;;0.80;99.90;;;;;;5011797;28;20053;-77
2023/03/02 05:57:48;;;;;;;530.93;93.67;;;0.80;99.90;;;;;;4995891;28;20057;-77
2023/03/02 06:00:14;;;;;;;442.13;92.30;;;0.80;99.90;;;;;;5026356;28;20235;-78
2023/03/02 06:02:40;;;;;;;456.00;91.70;;;0.80;99.90;;;;;;5023358;28;20049;-78
2023/03/02 06:05:09;;;;;;;483.47;95.83;;;1.40;99.90;;;;;;5030956;28;20095;-78
2023/03/02 06:07:35;;;;;;;455.17;94.23;;;1.00;99.90;;;;;;5013900;28;20042;-78
2023/03/02 06:10:01;;;;;;;424.47;87.10;;;0.90;99.90;;;;;;5031125;28;20090;-77
2023/03/02 06:12:26;;;;;;;419.67;84.63;;;0.80;99.90;;;;;;5029864;28;20279;-77
2023/03/02 06:14:52;;;;;;;498.30;84.47;;;0.90;99.90;;;;;;5030844;28;20091;-78
2023/03/02 06:17:18;;;;;;;477.63;82.00;;;0.90;99.90;;;;;;5015242;28;20045;-78
2023/03/02 06:19:44;;;;;;;579.80;83.83;;;1.10;99.90;;;;;;5031537;28;20034;-78
2023/03/02 06:22:09;;;;;;;644.33;88.90;;;0.80;99.90;;;;;;5028679;28;20136;-77
2023/03/02 06:24:35;;;;;;;547.17;82.13;;;0.80;99.90;;;;;;5031259;28;20053;-78
2023/03/02 06:27:01;;;;;;;594.57;85.13;;;0.80;99.90;;;;;;5015371;28;20053;-78
2023/03/02 06:29:26;;;;;;;507.73;81.80;;;0.90;99.90;;;;;;5030170;28;20171;-77
2023/03/02 06:31:52;;;;;;;528.30;75.47;;;1.30;99.90;;;;;;5030510;28;20057;-78
2023/03/02 06:34:18;;;;;;;518.97;79.70;;;0.90;99.90;;;;;;5029897;28;20050;-78
2023/03/02 06:36:43;;;;;;;667.73;88.97;;;1.10;99.90;;;;;;5015508;28;20052;-78
2023/03/02 06:39:14;;;;;;;473.50;81.13;;;0.70;99.90;;;;;;5029606;28;20403;-78
2023/03/02 06:41:44;;;;;;;691.22;95.22;;;0.90;99.90;;;;;;5030775;28;20110;-78
2023/03/02 06:44:11;;;;;;;459.30;81.67;;;0.90;99.90;;;;;;5028579;28;20049;-78
2023/03/02 06:46:37;;;;;;;632.40;97.67;;;0.80;99.90;;;;;;5016910;28;20056;-78
2023/03/02 06:49:04;;;;;;;547.00;89.60;;;0.80;99.90;;;;;;5027908;28;20136;-77
2023/03/02 06:51:29;;;;;;;716.37;97.70;;;1.00;99.90;;;;;;5014553;28;20184;-78
2023/03/02 06:53:55;;;;;;;657.50;94.47;;;1.30;99.90;;;;;;5007966;28;20562;-78
2023/03/02 06:56:21;;;;;;;693.17;93.27;;;0.90;99.90;;;;;;5013711;28;20175;-78
2023/03/02 06:58:47;;;;;;;770.23;104.03;;;0.80;99.90;;;;;;5023136;28;20056;-78
2023/03/02 07:01:13;;;;;;;665.97;95.97;;;1.00;99.90;;;;;;5059960;28;20685;-78
2023/03/02 07:03:39;;;;;;;559.67;93.30;;;0.90;99.90;;;;;;5012830;28;20050;-78
2023/03/02 07:06:05;;;;;;;607.10;92.90;;;0.80;99.90;;;;;;4991194;28;20049;-79
2023/03/02 07:08:31;;;;;;;509.60;86.70;;;0.90;99.90;;;;;;5013044;28;20110;-79
2023/03/02 07:10:57;;;;;;;683.47;97.93;;;1.50;99.90;;;;;;5026700;28;20038;-78
2023/03/02 07:13:23;;;;;;;570.33;92.63;;;0.80;99.90;;;;;;5026449;28;20110;-78
2023/03/02 07:15:48;;;;;;;634.13;93.10;;;0.80;99.90;;;;;;5028699;28;20053;-78
2023/03/02 07:18:14;;;;;;;651.47;94.90;;;1.40;99.90;;;;;;4999967;28;20048;-79
2023/03/02 07:20:40;;;;;;;449.77;85.73;;;0.80;99.90;;;;;;5009201;28;20422;-78
2023/03/02 07:23:06;;;;;;;453.07;83.90;;;1.10;99.90;;;;;;5025518;28;20048;-78
2023/03/02 07:25:31;;;;;;;407.20;80.97;;;1.00;99.90;;;;;;5026385;28;20484;-78
2023/03/02 07:27:57;;;;;;;563.83;92.97;;;1.30;99.90;;;;;;5012755;28;20507;-78
2023/03/02 07:30:24;;;;;;;624.57;90.17;;;1.10;99.90;;;;;;5028623;28;20128;-78
2023/03/02 07:32:50;;;;;;;470.17;81.10;;;1.10;99.90;;;;;;5028538;28;20082;-78
2023/03/02 07:35:16;;;;;;;573.67;75.43;;;1.10;99.90;;;;;;5029587;28;20053;-77
2023/03/02 07:37:42;;;;;;;688.17;74.93;;;1.10;99.90;;;;;;5014519;28;20388;-78
2023/03/02 07:40:10;;;;;;;629.00;69.23;;;1.00;99.90;;;;;;5029434;28;20052;-78
2023/03/02 07:42:37;;;;;;;600.07;70.70;;;0.90;99.90;;;;;;5028316;28;20095;-78
2023/03/02 07:45:04;;;;;;;532.57;67.93;;;1.00;99.90;;;;;;5028760;28;20128;-78
2023/03/02 07:47:30;;;;;;;502.03;64.00;;;1.00;99.90;;;;;;4996273;28;20071;-78
2023/03/02 07:49:56;;;;;;;437.30;59.67;;;1.00;99.90;;;;;;5024305;28;20412;-79
2023/03/02 07:52:21;;;;;;;335.40;54.07;;;0.90;99.90;;;;;;5029717;28;20041;-79
2023/03/02 07:54:47;;;;;;;481.00;59.03;;;1.30;99.90;;;;;;5017599;28;20081;-79
2023/03/02 07:57:15;;;;;;;469.97;57.13;;;0.80;99.90;;;;;;5001560;28;20060;-79
2023/03/02 07:59:42;;;;;;;502.00;58.97;;;1.00;99.90;;;;;;4999684;28;20057;-80
2023/03/02 08:02:19;;;;;;;563.73;63.20;;;1.00;99.90;;;;;;5016323;28;20053;-79
2023/03/02 08:04:45;;;;;;;524.33;61.87;;;1.10;99.90;;;;;;5016581;28;20156;-78
2023/03/02 08:07:10;;;;;;;519.97;59.97;;;0.90;99.90;;;;;;5000673;28;20071;-79
2023/03/02 08:09:38;;;;;;;534.27;62.90;;;1.10;99.90;;;;;;5016187;28;20057;-79
2023/03/02 08:12:04;;;;;;;565.13;66.27;;;1.20;99.90;;;;;;5012675;28;20056;-77
2023/03/02 08:14:30;;;;;;;331.23;52.40;;;0.80;99.90;;;;;;5015704;28;20049;-79
2023/03/02 08:16:55;;;;;;;357.07;53.40;;;1.10;99.90;;;;;;5001726;28;20072;-79
2023/03/02 08:19:21;;;;;;;314.13;50.23;;;1.10;99.90;;;;;;5015957;28;20053;-78
2023/03/02 08:21:47;;;;;;;514.40;55.53;;;0.80;99.90;;;;;;5017274;28;20156;-78
2023/03/02 08:24:12;;;;;;;341.50;49.80;;;0.90;99.90;;;;;;5015590;28;20138;-79
2023/03/02 08:26:38;;;;;;;333.67;51.10;;;0.90;99.90;;;;;;5003030;28;20045;-78
2023/03/02 08:29:05;;;;;;;284.03;48.50;;;0.90;99.90;;;;;;5014788;28;20057;-79
2023/03/02 08:31:31;;;;;;;402.37;52.77;;;1.10;99.90;;;;;;5017630;28;20436;-78
2023/03/02 08:33:58;;;;;;;333.23;50.67;;;1.20;99.90;;;;;;5016259;28;20064;-78
2023/03/02 08:36:24;;;;;;;281.17;49.77;;;2.20;99.90;;;;;;5004533;28;21033;-78
2023/03/02 08:38:50;;;;;;;221.27;47.10;;;1.10;99.90;;;;;;5012457;28;20492;-78
2023/03/02 08:41:18;;;;;;;297.83;49.17;;;1.20;99.90;;;;;;5016773;28;20431;-78
2023/03/02 08:43:45;;;;;;;316.97;51.57;;;1.50;99.90;;;;;;5014332;28;20061;-78
2023/03/02 08:46:12;;;;;;;212.30;48.13;;;1.70;99.90;;;;;;5010606;28;20420;-79
2023/03/02 08:48:37;;;;;;;173.63;46.43;;;2.20;99.90;;;;;;5012661;28;20054;-79
2023/03/02 08:51:06;;;;;;;201.13;45.63;;;1.60;99.90;;;;;;5020416;28;20058;-78
2023/03/02 08:53:35;;;;;;;274.27;43.10;;;1.70;99.90;;;;;;5020701;28;20393;-80
2023/03/02 08:56:01;;;;;;;133.23;37.97;;;2.20;99.90;;;;;;5020256;28;20060;-79
2023/03/02 08:58:27;;;;;;;165.87;38.20;;;1.40;99.90;;;;;;5004885;28;20053;-78
2023/03/02 09:00:53;;;;;;;134.23;36.47;;;1.40;99.90;;;;;;5019549;28;20078;-78
2023/03/02 09:03:19;;;;;;;124.90;35.70;;;1.40;99.90;;;;;;5020123;28;20107;-78
2023/03/02 09:05:45;;;;;;;139.63;36.90;;;1.40;99.90;;;;;;5020970;28;20049;-78
2023/03/02 09:08:10;;;;;;;138.17;38.87;;;1.40;99.90;;;;;;5002901;28;20053;-79
2023/03/02 09:10:37;;;;;;;143.07;37.70;;;1.70;99.90;;;;;;5018829;28;20033;-78
2023/03/02 09:13:03;;;;;;;116.27;37.73;;;1.70;99.90;;;;;;5019944;28;20041;-79
2023/03/02 09:15:29;;;;;;;102.57;36.13;;;1.70;99.90;;;;;;5021114;28;20054;-78
2023/03/02 09:17:54;;;;;;;107.07;35.37;;;2.10;99.90;;;;;;5002971;28;20055;-78
2023/03/02 09:20:20;;;;;;;107.00;36.30;;;1.90;99.90;;;;;;5019723;28;20136;-78
2023/03/02 09:22:49;;;;;;;114.40;34.47;;;1.80;99.90;;;;;;5019439;28;20661;-78
2023/03/02 09:25:17;;;;;;;99.60;36.43;;;1.90;99.90;;;;;;5018625;28;20488;-78
2023/03/02 09:27:43;;;;;;;90.20;34.93;;;1.80;99.90;;;;;;5003064;28;20730;-78
2023/03/02 09:30:09;;;;;;;68.77;30.13;;;2.00;99.90;;;;;;5019361;28;20045;-79
2023/03/02 09:32:35;;;;;;;64.00;29.43;;;2.30;99.90;;;;;;5019083;28;20084;-78
2023/03/02 09:35:01;;;;;;;56.23;27.70;;;2.50;99.90;;;;;;5018782;28;20077;-78
2023/03/02 09:37:27;;;;;;;52.37;26.23;;;2.50;99.90;;;;;;5003725;28;20049;-79
2023/03/02 09:39:53;;;;;;;53.60;27.33;;;2.60;99.90;;;;;;5019869;28;20437;-78
2023/03/02 09:42:37;;;;;;;50.70;27.07;;;2.50;99.90;;;;;;5018420;28;20060;-78
2023/03/02 09:45:20;;;;;;;52.60;26.90;;;2.50;99.90;;;;;;5019189;28;20099;-78
2023/03/02 09:48:02;;;;;;;51.60;25.80;;;2.50;99.90;;;;;;5002637;28;20806;-78
2023/03/02 09:50:50;;;;;;;49.27;25.03;;;2.50;99.90;;;;;;5019133;28;20056;-78
2023/03/02 09:53:45;;;;;;;49.27;24.97;;;2.60;99.90;;;;;;5019364;28;20065;-78
2023/03/02 09:56:16;;;;;;;46.90;25.30;;;2.50;99.90;;;;;;5010784;28;20057;-79
2023/03/02 09:58:50;;;;;;;47.55;24.83;;;2.60;99.90;;;;;;5014809;28;20494;-78
2023/03/02 10:01:28;;;;;;;55.33;28.10;;;2.60;99.90;;;;;;5019657;28;20046;-78
2023/03/02 10:04:01;;;;;;;56.80;27.57;;;3.00;99.90;;;;;;5017470;28;20494;-78
2023/03/02 10:06:28;;;;;;;60.50;29.53;;;2.70;99.90;;;;;;5006702;28;20492;-79
2023/03/02 10:08:55;;;;;;;66.47;28.60;;;2.70;99.90;;;;;;5016063;28;20049;-78
2023/03/02 10:11:48;;;;;;;56.13;28.70;;;2.70;99.90;;;;;;5018958;28;20057;-79
2023/03/02 10:14:26;;;;;;;56.60;28.47;;;2.70;99.90;;;;;;5000004;28;20049;-79
2023/03/02 10:17:16;;;;;;;49.37;26.50;;;2.90;99.90;;;;;;5003934;28;20547;-78
2023/03/02 10:19:55;;;;;;;46.87;24.67;;;2.70;99.90;;;;;;5018092;28;21453;-77
2023/03/02 10:22:38;;;;;;;44.57;24.43;;;2.70;99.90;;;;;;5000254;28;20065;-79
2023/03/02 10:25:13;;;;;;;38.57;21.53;;;2.70;99.90;;;;;;5000743;28;21515;-78
2023/03/02 10:27:42;;;;;;;39.57;20.63;;;2.70;99.90;;;;;;5002946;28;20053;-78
2023/03/02 10:30:16;;;;;;;36.90;20.27;;;2.90;99.90;;;;;;5019021;28;20084;-78
2023/03/02 10:32:46;;;;;;;37.97;20.93;;;3.20;99.90;;;;;;5017963;28;20514;-78
2023/03/02 10:35:24;;;;;;;36.40;20.60;;;3.60;99.90;;;;;;5018686;28;20049;-79
2023/03/02 10:38:12;;;;;;;37.20;21.80;;;3.80;99.90;;;;;;5002430;28;20464;-78
2023/03/02 10:40:47;;;;;;;40.77;23.73;;;4.20;99.90;;;;;;5017531;28;20068;-79
2023/03/02 10:43:33;;;;;;;38.50;21.20;;;4.20;99.90;;;;;;5017888;28;20088;-81
2023/03/02 10:46:08;;;;;;;32.63;19.43;;;4.60;99.90;;;;;;5018508;28;20500;-78
2023/03/02 10:48:57;;;;;;;33.83;20.00;;;5.20;99.90;;;;;;5009644;28;20052;-78
2023/03/02 10:51:29;;;;;;;32.30;19.83;;;5.40;99.90;;;;;;5016537;28;20443;-78
2023/03/02 10:54:12;;;;;;;30.90;18.87;;;5.60;99.90;;;;;;5017485;28;20495;-78
2023/03/02 10:56:41;;;;;;;31.97;18.97;;;5.60;99.90;;;;;;5003974;28;20997;-79
2023/03/02 10:59:25;;;;;;;31.87;19.00;;;5.20;99.90;;;;;;5015835;28;20049;-79
2023/03/02 11:02:24;;;;;;;30.47;18.30;;;5.30;99.90;;;;;;5017879;28;20057;-78
2023/03/02 11:05:19;;;;;;;28.87;17.47;;;5.10;99.90;;;;;;4983979;28;20053;-78
2023/03/02 11:07:52;;;;;;;30.47;17.47;;;4.80;99.90;;;;;;5001631;28;20057;-79
2023/03/02 11:10:22;;;;;;;28.70;18.17;;;5.40;99.90;;;;;;5015795;28;20095;-79
2023/03/02 11:12:49;;;;;;;32.30;18.87;;;5.90;99.90;;;;;;5016442;28;20059;-79
2023/03/02 11:15:24;;;;;;;36.60;21.27;;;6.20;99.90;;;;;;5018610;28;20555;-78
2023/03/02 11:18:08;;;;;;;32.00;19.07;;;6.40;99.90;;;;;;5001503;28;20041;-78
2023/03/02 11:20:39;;;;;;;36.23;21.30;;;6.80;99.90;;;;;;5017178;28;20041;-78
2023/03/02 11:23:17;;;;;;;44.10;23.13;;;6.40;99.90;;;;;;5017374;28;20064;-79
2023/03/02 11:26:26;;;;;;;39.90;23.67;;;6.00;99.90;;;;;;5017103;28;20489;-79
2023/03/02 11:29:18;;;;;;;42.27;25.97;;;6.60;99.90;;;;;;5012978;28;20092;-79
2023/03/02 11:31:53;;;;;;;45.35;25.27;;;6.90;99.90;;;;;;5000165;28;20064;-78
2023/03/02 11:34:19;;;;;;;47.80;27.03;;;6.90;99.90;;;;;;5017453;28;20057;-79
2023/03/02 11:37:11;;;;;;;55.73;30.57;;;6.90;99.90;;;;;;5002322;28;20530;-78
2023/03/02 11:39:49;;;;;;;62.90;32.40;;;7.60;99.90;;;;;;5016415;28;20479;-78
2023/03/02 11:42:30;;;;;;;53.80;30.47;;;7.80;99.90;;;;;;5015656;28;20053;-78
2023/03/02 11:44:59;;;;;;;;;;;7.20;99.90;;;;;;5018452;28;20209;-79
2023/03/02 11:47:26;;;;;;;51.93;28.83;;;6.70;99.90;;;;;;5033693;28;20038;-78
2023/03/02 11:49:57;;;;;;;46.77;26.07;;;7.30;99.90;;;;;;5016843;28;20045;-79
2023/03/02 11:52:29;;;;;;;38.17;23.47;;;7.70;99.90;;;;;;5047941;28;20065;-79
2023/03/02 11:55:06;;;;;;;39.87;24.17;;;7.90;99.90;;;;;;5017229;28;20672;-80
2023/03/02 11:57:47;;;;;;;40.27;23.13;;;7.70;99.90;;;;;;5001623;28;20054;-79
2023/03/02 12:00:43;;;;;;;31.08;20.70;;;7.50;99.90;;;;;;5017709;28;20515;-78
2023/03/02 12:03:15;;;;;;;34.40;21.03;;;7.40;99.90;;;;;;5016081;28;20530;-78
2023/03/02 12:05:44;;;;;;;36.70;23.07;;;7.20;99.90;;;;;;5045046;28;20462;-78
2023/03/02 12:08:18;;;;;;;34.27;22.13;;;7.20;99.90;;;;;;4980850;28;20116;-78
2023/03/02 12:11:07;;;;;;;29.33;19.50;;;7.20;99.90;;;;;;5015380;28;20083;-78
2023/03/02 12:13:37;;;;;;;27.73;18.13;;;7.20;99.90;;;;;;5015238;28;20049;-78
2023/03/02 12:16:22;;;;;;;28.43;17.63;;;7.00;99.90;;;;;;5016992;28;20068;-79
2023/03/02 12:18:51;;;;;;;26.10;16.33;;;6.70;99.90;;;;;;5013518;28;20491;-79
2023/03/02 12:21:22;;;;;;;25.23;15.97;;;6.80;99.90;;;;;;5020204;28;20381;-78
2023/03/02 12:23:48;;;;;;;22.25;15.13;;;7.40;99.90;;;;;;4967721;28;20123;-78
2023/03/02 12:26:20;;;;;;;24.20;14.67;;;7.40;99.90;;;;;;5004617;28;20678;-78
2023/03/02 12:29:12;;;;;;;18.80;13.23;;;7.00;99.90;;;;;;5013365;28;20068;-78
2023/03/02 12:31:48;;;;;;;21.17;13.33;;;6.60;99.90;;;;;;5018903;28;20050;-78
2023/03/02 12:34:23;;;;;;;21.13;13.50;;;6.30;99.90;;;;;;5015806;28;20508;-79
2023/03/02 12:36:51;;;;;;;17.70;12.70;;;6.00;99.90;;;;;;5004044;28;20650;-79
2023/03/02 12:39:53;;;;;;;16.90;12.50;;;5.70;99.90;;;;;;5019340;28;20073;-79
2023/03/02 12:42:41;;;;;;;22.50;14.17;;;6.10;99.90;;;;;;5019594;28;20045;-77
2023/03/02 12:45:16;;;;;;;19.10;13.77;;;7.00;99.90;;;;;;5017565;28;20066;-79
2023/03/02 12:47:48;;;;;;;20.77;14.47;;;7.50;99.90;;;;;;5002597;28;20069;-77